Time;durP1;ratioP1;P1;durP2;ratioP2;P2;SDS_P1;SDS_P2;PMS_P1;PMS_P2;Temp;Humidity;BMP_temperature;BMP_pressure;BME280_temperature;BME280_humidity;BME280_pressure;Samples;Min_cycle;Max_cycle;Signal;HPM_P1;HPM_P2
2023/05/10 00:00:49;;;;;;;;;;;;;;;19.03;68.92;101489.31;7397352;19;1534;-51
2023/05/10 00:03:17;;;;;;;;;;;;;;;19.01;69.03;101488.56;7395634;19;1179;-50
2023/05/10 00:05:45;;;;;;;;;;;;;;;19.04;68.98;101496.38;7397481;19;1242;-50
2023/05/10 00:08:14;;;;;;;;;;;;;;;19.15;68.84;101500.06;7395836;19;1113;-51
2023/05/10 00:10:42;;;;;;;;;;;;;;;19.12;68.80;101500.28;7396798;19;1941;-50
2023/05/10 00:13:10;;;;;;;;;;;;;;;19.15;68.55;101500.06;7396885;19;1336;-50
2023/05/10 00:15:39;;;;;;;;;;;;;;;19.17;68.36;101498.13;7395261;19;1851;-51
2023/05/10 00:18:10;;;;;;;;;;;;;;;19.12;68.35;101486.88;7396443;19;1934;-50
2023/05/10 00:20:38;;;;;;;;;;;;;;;19.14;68.48;101492.97;7396135;19;1525;-51
2023/05/10 00:23:06;;;;;;;;;;;;;;;19.07;68.71;101493.44;7396899;19;1131;-50
2023/05/10 00:25:34;;;;;;;;;;;;;;;19.10;68.58;101489.69;7396529;19;1468;-50
2023/05/10 00:28:03;;;;;;;;;;;;;;;19.04;68.53;101488.34;7395944;19;1350;-51
2023/05/10 00:30:31;;;;;;;;;;;;;;;19.06;68.54;101488.22;7396779;19;1458;-50
2023/05/10 00:33:00;;;;;;;;;;;;;;;19.05;68.67;101490.03;7398354;19;1171;-50
2023/05/10 00:35:31;;;;;;;;;;;;;;;19.03;68.62;101500.03;7395822;19;1914;-50
2023/05/10 00:37:59;;;;;;;;;;;;;;;19.01;68.59;101493.94;7396027;19;1513;-50
2023/05/10 00:40:28;;;;;;;;;;;;;;;19.03;68.49;101505.38;7396450;19;1939;-50
2023/05/10 00:42:56;;;;;;;;;;;;;;;19.02;68.59;101484.94;7396860;19;1456;-51
2023/05/10 00:45:25;;;;;;;;;;;;;;;19.01;68.49;101483.19;7396879;19;1499;-50
2023/05/10 00:47:55;;;;;;;;;;;;;;;19.01;68.61;101488.56;7396978;19;1585;-50
2023/05/10 00:50:24;;;;;;;;;;;;;;;19.01;68.59;101487.72;7397128;19;1013;-50
2023/05/10 00:52:55;;;;;;;;;;;;;;;19.02;68.75;101484.94;7395843;19;1527;-50
2023/05/10 00:55:23;;;;;;;;;;;;;;;18.99;68.57;101485.16;7395564;19;1864;-50
2023/05/10 00:57:51;;;;;;;;;;;;;;;19.01;68.57;101487.72;7396639;19;1561;-51
2023/05/10 01:00:20;;;;;;;;;;;;;;;19.02;68.43;101492.97;7396186;19;1654;-50
2023/05/10 01:02:49;;;;;;;;;;;;;;;18.97;68.45;101479.06;7398003;19;1309;-50
2023/05/10 01:05:17;;;;;;;;;;;;;;;18.97;68.57;101486.25;7396840;19;1803;-50
2023/05/10 01:07:46;;;;;;;;;;;;;;;18.94;68.50;101470.38;7396316;19;1519;-50
2023/05/10 01:10:17;;;;;;;;;;;;;;;18.92;68.64;101473.22;7393639;19;1335;-50
2023/05/10 01:12:46;;;;;;;;;;;;;;;18.95;68.70;101486.34;7396139;19;1517;-50
2023/05/10 01:15:15;;;;;;;;;;;;;;;19.00;68.57;101486.00;7402296;19;1863;-51
2023/05/10 01:17:45;;;;;;;;;;;;;;;19.03;68.38;101491.97;7403988;19;1167;-50
2023/05/10 01:20:14;;;;;;;;;;;;;;;19.10;68.11;101476.28;7402547;19;1942;-51
2023/05/10 01:23:00;;;;;;;;;;;;;;;19.13;68.02;101492.13;7403285;19;1467;-50
2023/05/10 01:25:46;;;;;;;;;;;;;;;19.20;67.70;101495.19;7402763;19;1947;-50
2023/05/10 01:28:36;;;;;;;;;;;;;;;19.15;67.85;101486.66;7402169;19;1492;-50
2023/05/10 01:31:25;;;;;;;;;;;;;;;19.12;68.00;101481.50;7402205;19;1480;-50
2023/05/10 01:33:58;;;;;;;;;;;;;;;19.15;67.91;101466.06;7401329;19;1581;-50
2023/05/10 01:36:29;;;;;;;;;;;;;;;19.13;67.80;101480.56;7400341;19;1903;-51
2023/05/10 01:39:01;;;;;;;;;;;;;;;19.19;67.88;101474.72;7401765;19;1427;-51
2023/05/10 01:41:33;;;;;;;;;;;;;;;19.11;68.03;101479.81;7403770;19;1257;-51
2023/05/10 01:44:05;;;;;;;;;;;;;;;19.00;68.88;101467.22;7402974;19;1554;-51
2023/05/10 01:46:37;;;;;;;;;;;;;;;19.45;67.41;101473.50;7401578;19;1554;-51
2023/05/10 01:49:11;;;;;;;;;;;;;;;20.00;65.93;101470.13;7402498;19;1418;-51
2023/05/10 01:51:42;;;;;;;;;;;;;;;20.53;64.50;101464.81;7401863;19;1622;-51
2023/05/10 01:54:11;;;;;;;;;;;;;;;20.51;64.70;101474.81;7401828;19;1537;-51
2023/05/10 01:56:40;;;;;;;;;;;;;;;20.55;64.67;101465.56;7398841;19;1859;-51
2023/05/10 01:59:11;;;;;;;;;;;;;;;20.63;64.44;101473.84;7401749;19;1195;-51
2023/05/10 02:01:40;;;;;;;;;;;;;;;20.70;64.17;101462.59;7401715;19;1939;-51
2023/05/10 02:04:12;;;;;;;;;;;;;;;20.66;64.50;101468.19;7400802;19;1530;-51
2023/05/10 02:06:41;;;;;;;;;;;;;;;20.61;64.56;101462.38;7400983;19;1309;-51
2023/05/10 02:09:09;;;;;;;;;;;;;;;20.68;64.69;101488.72;7398113;19;1538;-51
2023/05/10 02:11:40;;;;;;;;;;;;;;;20.68;64.67;101472.59;7401087;19;1249;-51
2023/05/10 02:14:10;;;;;;;;;;;;;;;20.65;64.40;101479.94;7399961;19;1624;-51
2023/05/10 02:16:40;;;;;;;;;;;;;;;20.74;64.54;101478.31;7398404;19;1853;-51
2023/05/10 02:19:12;;;;;;;;;;;;;;;20.71;64.51;101477.72;7400045;19;1294;-52
2023/05/10 02:21:41;;;;;;;;;;;;;;;20.78;64.46;101474.38;7399052;19;1182;-51
2023/05/10 02:24:11;;;;;;;;;;;;;;;20.76;64.46;101488.94;7398740;19;1403;-51
2023/05/10 02:26:40;;;;;;;;;;;;;;;20.77;64.32;101467.31;7398993;19;1451;-51
2023/05/10 02:29:09;;;;;;;;;;;;;;;20.89;64.20;101467.22;7400657;19;1455;-51
2023/05/10 02:31:38;;;;;;;;;;;;;;;20.86;64.33;101463.81;7400776;19;1103;-51
2023/05/10 02:34:07;;;;;;;;;;;;;;;20.88;64.34;101471.75;7398862;19;1202;-52
2023/05/10 02:36:39;;;;;;;;;;;;;;;20.89;64.12;101461.84;7399084;19;1887;-51
2023/05/10 02:39:12;;;;;;;;;;;;;;;20.94;63.98;101468.53;7399619;19;1576;-51
2023/05/10 02:41:42;;;;;;;;;;;;;;;20.92;64.13;101451.69;7400491;19;1620;-51
2023/05/10 02:44:11;;;;;;;;;;;;;;;20.94;63.96;101465.84;7400211;19;1531;-51
2023/05/10 02:46:40;;;;;;;;;;;;;;;20.97;64.07;101460.22;7400878;19;1487;-51
2023/05/10 02:49:08;;;;;;;;;;;;;;;21.08;63.91;101469.22;7400176;19;1545;-51
2023/05/10 02:51:42;;;;;;;;;;;;;;;20.93;64.27;101464.16;7399550;19;1491;-51
2023/05/10 02:54:13;;;;;;;;;;;;;;;20.91;64.50;101465.25;7399953;19;1483;-51
2023/05/10 02:56:45;;;;;;;;;;;;;;;20.93;64.57;101472.22;7398554;19;1841;-51
2023/05/10 02:59:13;;;;;;;;;;;;;;;20.96;64.50;101480.03;7400440;19;1515;-51
2023/05/10 03:01:42;;;;;;;;;;;;;;;20.99;64.56;101471.72;7400336;19;1138;-51
2023/05/10 03:04:10;;;;;;;;;;;;;;;21.01;64.13;101487.72;7399602;19;1667;-50
2023/05/10 03:06:41;;;;;;;;;;;;;;;21.02;64.32;101467.88;7396480;19;1527;-50
2023/05/10 03:09:11;;;;;;;;;;;;;;;21.04;64.27;101472.16;7397487;19;1716;-51
2023/05/10 03:11:49;;;;;;;;;;;;;;;21.06;64.12;101480.94;7400100;19;1234;-50
2023/05/10 03:14:24;;;;;;;;;;;;;;;21.06;64.17;101470.19;7400110;19;1190;-50
2023/05/10 03:16:58;;;;;;;;;;;;;;;21.07;63.99;101484.50;7396880;19;1834;-51
2023/05/10 03:19:29;;;;;;;;;;;;;;;21.11;63.97;101466.22;7398782;19;1506;-50
2023/05/10 03:22:02;;;;;;;;;;;;;;;21.09;64.11;101478.97;7399260;19;1494;-50
2023/05/10 03:24:30;;;;;;;;;;;;;;;21.06;64.22;101477.41;7398550;19;1198;-50
2023/05/10 03:27:02;;;;;;;;;;;;;;;21.09;63.99;101482.53;7400264;19;1210;-50
2023/05/10 03:29:32;;;;;;;;;;;;;;;21.11;63.87;101480.56;7398587;19;1550;-50
2023/05/10 03:32:00;;;;;;;;;;;;;;;21.12;64.06;101484.09;7398521;19;1451;-50
2023/05/10 03:34:29;;;;;;;;;;;;;;;21.14;64.01;101490.19;7398204;19;1530;-50
2023/05/10 03:37:00;;;;;;;;;;;;;;;21.16;63.90;101480.16;7396680;19;1856;-50
2023/05/10 03:39:28;;;;;;;;;;;;;;;21.14;64.04;101487.50;7396991;19;1549;-50
2023/05/10 03:41:56;;;;;;;;;;;;;;;21.18;63.91;101483.56;7398995;19;1345;-50
2023/05/10 03:44:25;;;;;;;;;;;;;;;21.24;63.48;101474.97;7397772;19;1495;-51
2023/05/10 03:46:53;;;;;;;;;;;;;;;21.23;63.69;101465.19;7395958;19;1558;-50
2023/05/10 03:49:21;;;;;;;;;;;;;;;21.28;63.58;101484.47;7398324;19;1296;-51
2023/05/10 03:51:50;;;;;;;;;;;;;;;21.25;63.64;101468.59;7397507;19;1557;-50
2023/05/10 03:54:21;;;;;;;;;;;;;;;21.30;63.56;101477.13;7397982;19;1614;-50
2023/05/10 03:56:50;;;;;;;;;;;;;;;21.37;63.22;101483.69;7397208;19;1862;-50
2023/05/10 03:59:18;;;;;;;;;;;;;;;21.34;63.45;101473.16;7396831;19;1292;-50
2023/05/10 04:01:46;;;;;;;;;;;;;;;21.06;63.90;101480.09;7398689;19;1024;-50
2023/05/10 04:04:14;;;;;;;;;;;;;;;20.87;64.74;101483.50;7398126;19;1395;-50
2023/05/10 04:06:42;;;;;;;;;;;;;;;20.75;64.96;101488.09;7397410;19;1175;-51
2023/05/10 04:09:11;;;;;;;;;;;;;;;20.73;64.82;101497.25;7396478;19;1530;-50
2023/05/10 04:11:42;;;;;;;;;;;;;;;20.55;65.31;101487.06;7397720;19;1412;-50
2023/05/10 04:14:10;;;;;;;;;;;;;;;20.49;65.50;101470.56;7395569;19;1351;-50
2023/05/10 04:16:38;;;;;;;;;;;;;;;20.36;65.97;101493.09;7396049;19;1865;-50
2023/05/10 04:19:07;;;;;;;;;;;;;;;20.34;65.82;101488.81;7397319;19;1546;-50
2023/05/10 04:21:35;;;;;;;;;;;;;;;20.32;65.92;101499.69;7397446;19;1543;-50
2023/05/10 04:24:03;;;;;;;;;;;;;;;20.34;65.55;101484.31;7397050;19;1487;-50
2023/05/10 04:26:32;;;;;;;;;;;;;;;20.31;65.54;101507.88;7396530;19;1206;-50
2023/05/10 04:29:03;;;;;;;;;;;;;;;20.37;65.75;101489.44;7395118;19;1252;-50
2023/05/10 04:31:31;;;;;;;;;;;;;;;20.10;66.11;101497.91;7395930;19;1241;-50
2023/05/10 04:33:59;;;;;;;;;;;;;;;20.10;66.48;101508.66;7397155;19;1554;-50
2023/05/10 04:36:28;;;;;;;;;;;;;;;20.12;66.57;101506.69;7395738;19;1840;-51
2023/05/10 04:38:56;;;;;;;;;;;;;;;20.22;66.12;101496.91;7393869;19;1384;-50
2023/05/10 04:41:25;;;;;;;;;;;;;;;20.27;66.16;101489.34;7393749;19;1401;-50
2023/05/10 04:43:53;;;;;;;;;;;;;;;20.33;65.94;101500.53;7394323;19;1380;-50
2023/05/10 04:46:24;;;;;;;;;;;;;;;20.32;66.05;101493.47;7393732;19;1151;-50
2023/05/10 04:48:52;;;;;;;;;;;;;;;20.33;65.91;101495.16;7405556;19;1646;-50
2023/05/10 04:51:21;;;;;;;;;;;;;;;20.25;66.16;101502.03;7410535;19;1462;-51
2023/05/10 04:53:49;;;;;;;;;;;;;;;20.17;66.42;101509.84;7409922;19;1587;-50
2023/05/10 04:56:18;;;;;;;;;;;;;;;20.13;66.52;101492.28;7410469;19;1861;-50
2023/05/10 04:58:46;;;;;;;;;;;;;;;20.15;66.53;101506.44;7410952;19;1554;-50
2023/05/10 05:01:14;;;;;;;;;;;;;;;19.97;67.03;101516.81;7411236;19;1121;-50
2023/05/10 05:03:45;;;;;;;;;;;;;;;19.88;67.25;101508.69;7409430;19;1554;-50
2023/05/10 05:06:13;;;;;;;;;;;;;;;19.97;66.83;101502.56;7409187;19;1169;-50
2023/05/10 05:08:42;;;;;;;;;;;;;;;19.94;66.90;101502.81;7407678;19;1437;-50
2023/05/10 05:11:10;;;;;;;;;;;;;;;19.76;63.99;101511.38;7408437;19;1158;-50
2023/05/10 05:13:38;;;;;;;;;;;;;;;19.51;64.48;101512.41;7408978;19;1205;-50
2023/05/10 05:16:07;;;;;;;;;;;;;;;19.59;60.55;101511.81;7406162;19;1873;-50
2023/05/10 05:18:36;;;;;;;;;;;;;;;19.61;59.80;101502.66;7406465;19;1494;-50
2023/05/10 05:21:15;;;;;;;;;;;;;;;19.37;63.35;101505.44;7403317;19;1280;-50
2023/05/10 05:23:43;;;;;;;;;;;;;;;19.32;60.81;101515.69;7405780;19;1518;-50
2023/05/10 05:26:12;;;;;;;;;;;;;;;19.31;59.62;101516.66;7404322;19;1562;-54
2023/05/10 05:28:40;;;;;;;;;;;;;;;19.35;58.57;101510.09;7409114;19;1313;-54
2023/05/10 05:31:09;;;;;;;;;;;;;;;19.44;57.54;101501.31;7408747;19;1591;-56
2023/05/10 05:33:38;;;;;;;;;;;;;;;19.42;57.85;101500.59;7407835;19;1655;-56
2023/05/10 05:36:09;;;;;;;;;;;;;;;19.37;60.49;101510.81;7407229;19;1853;-55
2023/05/10 05:38:37;;;;;;;;;;;;;;;19.44;56.34;101509.38;7409234;19;1476;-56
2023/05/10 05:41:05;;;;;;;;;;;;;;;19.51;55.83;101495.47;7410165;19;1035;-54
2023/05/10 05:43:34;;;;;;;;;;;;;;;19.36;58.62;101501.06;7408471;19;2109;-56
2023/05/10 05:46:02;;;;;;;;;;;;;;;19.38;57.15;101511.69;7409286;19;1566;-53
2023/05/10 05:48:32;;;;;;;;;;;;;;;19.47;56.01;101508.25;7408749;19;1618;-55
2023/05/10 05:51:00;;;;;;;;;;;;;;;19.66;53.83;101507.69;7406023;19;1155;-53
2023/05/10 05:53:31;;;;;;;;;;;;;;;19.43;56.75;101514.84;7405612;19;1597;-50
2023/05/10 05:56:00;;;;;;;;;;;;;;;18.98;55.43;101510.25;7403776;19;1877;-50
2023/05/10 05:58:28;;;;;;;;;;;;;;;18.65;53.97;101492.19;7406216;19;1088;-50
2023/05/10 06:00:57;;;;;;;;;;;;;;;18.69;53.60;101499.03;7399419;19;1819;-50
2023/05/10 06:03:25;;;;;;;;;;;;;;;18.81;53.63;101500.81;7401333;19;1786;-51
2023/05/10 06:05:53;;;;;;;;;;;;;;;18.77;54.02;101503.81;7399776;19;1389;-50
2023/05/10 06:08:22;;;;;;;;;;;;;;;18.80;55.25;101490.19;7395616;19;1396;-49
2023/05/10 06:10:53;;;;;;;;;;;;;;;19.13;55.42;101536.84;7400017;19;1306;-51
2023/05/10 06:13:21;;;;;;;;;;;;;;;19.38;56.11;101506.31;7399519;19;1447;-50
2023/05/10 06:15:49;;;;;;;;;;;;;;;19.34;56.85;101508.38;7400788;19;1495;-49
2023/05/10 06:18:17;;;;;;;;;;;;;;;19.48;56.32;101492.06;7396961;19;1852;-50
2023/05/10 06:20:46;;;;;;;;;;;;;;;19.38;56.60;101495.59;7400227;19;1455;-49
2023/05/10 06:23:14;;;;;;;;;;;;;;;19.62;56.45;101490.13;7394807;19;1427;-49
2023/05/10 06:25:42;;;;;;;;;;;;;;;19.56;56.63;101485.25;7394674;19;1218;-49
2023/05/10 06:28:13;;;;;;;;;;;;;;;19.64;56.80;101485.50;7398122;19;1858;-49
2023/05/10 06:30:42;;;;;;;;;;;;;;;19.75;56.48;101498.91;7398133;19;1859;-50
2023/05/10 06:33:10;;;;;;;;;;;;;;;19.86;56.69;101492.69;7399917;19;1518;-51
2023/05/10 06:35:38;;;;;;;;;;;;;;;19.63;56.94;101494.50;7399924;19;1259;-50
2023/05/10 06:38:06;;;;;;;;;;;;;;;19.46;56.50;101504.75;7396236;19;1845;-49
2023/05/10 06:40:35;;;;;;;;;;;;;;;19.56;57.57;101493.28;7398950;19;1463;-50
2023/05/10 06:43:04;;;;;;;;;;;;;;;19.65;56.76;101487.19;7397603;19;1426;-51
2023/05/10 06:45:35;;;;;;;;;;;;;;;19.82;55.99;101493.94;7398231;19;1824;-51
2023/05/10 06:48:03;;;;;;;;;;;;;;;19.82;56.05;101499.28;7397207;19;1549;-51
2023/05/10 06:50:32;;;;;;;;;;;;;;;19.67;56.13;101501.31;7400099;19;1054;-51
2023/05/10 06:53:00;;;;;;;;;;;;;;;19.80;54.82;101507.47;7399311;19;1388;-51
2023/05/10 06:55:29;;;;;;;;;;;;;;;19.82;55.47;101510.03;7398110;19;1919;-51
2023/05/10 06:57:57;;;;;;;;;;;;;;;19.71;60.00;101497.44;7396317;19;1853;-49
2023/05/10 07:00:25;;;;;;;;;;;;;;;19.86;58.99;101495.38;7396749;19;1486;-49
2023/05/10 07:02:56;;;;;;;;;;;;;;;19.75;58.53;101487.34;7395724;19;1127;-48
2023/05/10 07:05:27;;;;;;;;;;;;;;;19.64;58.41;101493.53;7396800;19;1605;-48
2023/05/10 07:07:55;;;;;;;;;;;;;;;19.77;58.52;101480.00;7398281;19;1375;-49
2023/05/10 07:10:24;;;;;;;;;;;;;;;19.86;57.52;101490.03;7394623;19;1307;-48
2023/05/10 07:12:52;;;;;;;;;;;;;;;19.90;56.44;101485.25;7397668;19;1446;-48
2023/05/10 07:15:20;;;;;;;;;;;;;;;19.95;56.91;101516.09;6885864;19;10000438;-49
2023/05/10 07:17:49;;;;;;;;;;;;;;;19.88;58.52;101495.28;7381489;19;1925;-49
2023/05/10 07:20:20;;;;;;;;;;;;;;;19.82;57.27;101499.28;7391068;19;1737;-50
2023/05/10 07:22:48;;;;;;;;;;;;;;;19.77;57.59;101486.22;7391597;19;1780;-51
2023/05/10 07:25:16;;;;;;;;;;;;;;;19.82;58.36;101500.13;7391007;19;1407;-51
2023/05/10 07:27:45;;;;;;;;;;;;;;;19.92;57.46;101494.03;7389431;19;1767;-51
2023/05/10 07:30:14;;;;;;;;;;;;;;;19.88;58.33;101493.44;7390638;19;1558;-50
2023/05/10 07:32:42;;;;;;;;;;;;;;;19.80;58.91;101488.69;7390237;19;1530;-50
2023/05/10 07:35:11;;;;;;;;;;;;;;;19.75;58.46;101481.97;7389744;19;1506;-50
2023/05/10 07:37:42;;;;;;;;;;;;;;;19.76;58.71;101492.59;7391270;19;1857;-50
2023/05/10 07:40:11;;;;;;;;;;;;;;;19.71;58.79;101481.34;7390735;19;1815;-50
2023/05/10 07:42:39;;;;;;;;;;;;;;;19.59;59.27;101487.66;7390421;19;1613;-51
2023/05/10 07:45:08;;;;;;;;;;;;;;;19.71;58.50;101475.97;7393877;19;1055;-51
2023/05/10 07:47:36;;;;;;;;;;;;;;;19.64;58.38;101480.13;7390882;19;1605;-53
2023/05/10 07:50:05;;;;;;;;;;;;;;;19.59;58.61;101487.66;7389427;19;1406;-50
2023/05/10 07:52:33;;;;;;;;;;;;;;;19.51;58.24;101490.09;7388880;19;1721;-50
2023/05/10 07:55:04;;;;;;;;;;;;;;;19.65;58.51;101492.53;7392089;19;1379;-50
2023/05/10 07:57:32;;;;;;;;;;;;;;;19.67;57.58;101488.75;7390149;19;1867;-50
2023/05/10 08:00:01;;;;;;;;;;;;;;;19.80;57.03;101491.34;7391842;19;1566;-50
2023/05/10 08:02:29;;;;;;;;;;;;;;;19.47;57.63;101495.69;7394897;19;1720;-50
2023/05/10 08:04:57;;;;;;;;;;;;;;;19.59;57.17;101484.97;7393963;19;1447;-50
2023/05/10 08:07:26;;;;;;;;;;;;;;;19.87;57.22;101486.34;7395115;19;1490;-50
2023/05/10 08:09:55;;;;;;;;;;;;;;;19.92;57.46;101483.31;7394793;19;1297;-49
2023/05/10 08:12:26;;;;;;;;;;;;;;;19.77;55.79;101501.47;7397789;19;1170;-50
2023/05/10 08:14:54;;;;;;;;;;;;;;;19.53;57.16;101488.16;7397061;19;1922;-49
2023/05/10 08:17:22;;;;;;;;;;;;;;;19.52;57.23;101499.84;7394404;19;1851;-49
2023/05/10 08:19:51;;;;;;;;;;;;;;;19.64;56.54;101483.66;7394622;19;1557;-49
2023/05/10 08:22:19;;;;;;;;;;;;;;;19.65;56.16;101487.19;7392064;19;1688;-49
2023/05/10 08:24:47;;;;;;;;;;;;;;;19.71;56.23;101483.16;7392696;19;1502;-50
2023/05/10 08:27:16;;;;;;;;;;;;;;;19.77;56.53;101475.50;7395112;19;1261;-50
2023/05/10 08:29:47;;;;;;;;;;;;;;;19.75;56.58;101487.34;7393387;19;1487;-49
2023/05/10 08:32:15;;;;;;;;;;;;;;;19.61;57.77;101501.81;7394884;19;1230;-49
2023/05/10 08:34:43;;;;;;;;;;;;;;;19.67;56.59;101498.66;7395241;19;1545;-49
2023/05/10 08:37:12;;;;;;;;;;;;;;;19.78;56.41;101487.94;7392397;19;1865;-48
2023/05/10 08:39:41;;;;;;;;;;;;;;;19.59;56.26;101482.31;7393731;19;1408;-49
2023/05/10 08:42:10;;;;;;;;;;;;;;;19.48;57.45;101475.97;7395349;19;1242;-48
2023/05/10 08:44:39;;;;;;;;;;;;;;;19.54;57.57;101473.78;7395532;19;1475;-48
2023/05/10 08:47:11;;;;;;;;;;;;;;;19.67;56.10;101490.59;7395189;19;1218;-48
2023/05/10 08:49:39;;;;;;;;;;;;;;;19.64;56.98;101482.81;7395482;19;1273;-48
2023/05/10 08:52:08;;;;;;;;;;;;;;;19.68;56.88;101478.91;7395801;19;1205;-49
2023/05/10 08:54:36;;;;;;;;;;;;;;;19.75;57.34;101496.22;7395664;19;1174;-49
2023/05/10 08:57:05;;;;;;;;;;;;;;;19.76;56.81;101492.59;7396631;19;1871;-49
2023/05/10 08:59:33;;;;;;;;;;;;;;;19.70;56.19;101492.19;7395719;19;1937;-49
2023/05/10 09:02:02;;;;;;;;;;;;;;;19.66;55.97;101480.84;7395690;19;1265;-49
2023/05/10 09:04:33;;;;;;;;;;;;;;;19.71;56.09;101475.97;7395937;19;1530;-49
2023/05/10 09:07:01;;;;;;;;;;;;;;;19.78;55.78;101476.38;7395007;19;1561;-49
2023/05/10 09:09:30;;;;;;;;;;;;;;;19.69;55.83;101461.81;7394556;19;1381;-49
2023/05/10 09:11:58;;;;;;;;;;;;;;;19.52;55.80;101487.31;7396113;19;1285;-49
2023/05/10 09:14:27;;;;;;;;;;;;;;;19.55;55.77;101470.09;7395531;19;1522;-49
2023/05/10 09:16:56;;;;;;;;;;;;;;;19.78;55.42;101474.53;7396575;19;1633;-49
2023/05/10 09:19:24;;;;;;;;;;;;;;;19.65;54.96;101461.19;7395402;19;1494;-49
2023/05/10 09:21:55;;;;;;;;;;;;;;;19.71;54.13;101491.22;7394775;19;1735;-48
2023/05/10 09:24:27;;;;;;;;;;;;;;;19.68;54.84;101470.84;7394918;19;1803;-49
2023/05/10 09:26:55;;;;;;;;;;;;;;;19.56;53.86;101466.47;7394803;19;1384;-49
2023/05/10 09:29:24;;;;;;;;;;;;;;;19.67;54.42;101469.97;7394647;19;1031;-49
2023/05/10 09:31:54;;;;;;;;;;;;;;;19.74;53.96;101459.66;7395413;19;1859;-49
2023/05/10 09:34:23;;;;;;;;;;;;;;;19.84;53.54;101451.72;7398563;19;1792;-49
2023/05/10 09:36:56;;;;;;;;;;;;;;;19.93;53.29;101452.78;7403083;19;1709;-49
2023/05/10 09:39:32;;;;;;;;;;;;;;;19.90;53.68;101453.06;7399243;19;1848;-49
2023/05/10 09:42:01;;;;;;;;;;;;;;;19.82;53.36;101451.81;7402664;19;1197;-49
2023/05/10 09:44:29;;;;;;;;;;;;;;;19.70;52.99;101439.38;7402106;19;1495;-49
2023/05/10 09:46:58;;;;;;;;;;;;;;;19.89;52.47;101435.22;7402196;19;1530;-49
2023/05/10 09:49:26;;;;;;;;;;;;;;;19.71;51.53;101435.72;7402553;19;1474;-49
2023/05/10 09:52:07;;;;;;;;;;;;;;;19.75;51.24;101434.50;7401682;19;1712;-49
2023/05/10 09:54:36;;;;;;;;;;;;;;;19.68;51.60;101439.50;7402161;19;1709;-49
2023/05/10 09:57:05;;;;;;;;;;;;;;;19.58;51.57;101432.31;7402011;19;1731;-49
2023/05/10 09:59:35;;;;;;;;;;;;;;;19.69;52.64;101426.91;7398753;19;1810;-48
2023/05/10 10:02:04;;;;;;;;;;;;;;;19.71;51.92;101425.00;7402686;19;1196;-48
2023/05/10 10:04:32;;;;;;;;;;;;;;;19.58;52.31;101443.06;7402819;19;1776;-48
2023/05/10 10:07:01;;;;;;;;;;;;;;;19.68;52.29;101436.81;7401015;19;1815;-49
2023/05/10 10:09:32;;;;;;;;;;;;;;;19.51;52.30;101441.81;7400589;19;1095;-49
2023/05/10 10:12:01;;;;;;;;;;;;;;;19.61;51.78;101426.69;7402541;19;1808;-50
2023/05/10 10:14:30;;;;;;;;;;;;;;;19.75;50.76;101431.81;7401456;19;1580;-49
2023/05/10 10:16:58;;;;;;;;;;;;;;;19.64;49.58;101450.59;7402441;19;1376;-50
2023/05/10 10:19:26;;;;;;;;;;;;;;;19.50;52.13;101435.63;7399194;19;1829;-51
2023/05/10 10:21:55;;;;;;;;;;;;;;;19.46;50.30;101429.63;7401627;19;1798;-50
2023/05/10 10:24:23;;;;;;;;;;;;;;;19.44;52.38;101431.59;7400756;19;1815;-48
2023/05/10 10:26:54;;;;;;;;;;;;;;;19.45;52.29;101427.06;7400054;19;1284;-49
2023/05/10 10:29:26;;;;;;;;;;;;;;;19.46;52.50;101428.78;7401726;19;1795;-50
2023/05/10 10:31:58;;;;;;;;;;;;;;;19.65;52.49;101434.38;7398162;19;1628;-49
2023/05/10 10:34:29;;;;;;;;;;;;;;;19.75;53.41;101413.03;7400931;19;1565;-50
2023/05/10 10:36:58;;;;;;;;;;;;;;;19.53;53.75;101419.25;7402160;19;1834;-49
2023/05/10 10:39:27;;;;;;;;;;;;;;;19.70;53.86;101412.53;7397921;19;1851;-50
2023/05/10 10:41:59;;;;;;;;;;;;;;;19.63;54.45;101404.13;7400342;19;1027;-49
2023/05/10 10:44:29;;;;;;;;;;;;;;;19.48;54.75;101411.59;7400188;19;1766;-50
2023/05/10 10:47:22;;;;;;;;;;;;;;;19.62;53.58;101361.34;7399757;19;1724;-50
2023/05/10 10:49:51;;;;;;;;;;;;;;;19.53;54.37;101423.78;7400097;19;1848;-50
2023/05/10 10:52:28;;;;;;;;;;;;;;;19.62;54.09;101402.44;7400253;19;1479;-50
2023/05/10 10:55:00;;;;;;;;;;;;;;;19.53;54.79;101402.31;7399859;19;1537;-49
2023/05/10 10:57:33;;;;;;;;;;;;;;;19.56;55.21;101404.75;7398904;19;1530;-49
2023/05/10 11:00:16;;;;;;;;;;;;;;;19.72;55.08;101391.00;7399681;19;1565;-49
2023/05/10 11:02:48;;;;;;;;;;;;;;;19.78;55.23;101385.97;7399198;19;1520;-49
2023/05/10 11:05:26;;;;;;;;;;;;;;;19.55;55.78;101395.00;7400516;19;1541;-49
2023/05/10 11:07:55;;;;;;;;;;;;;;;19.57;56.07;101395.72;7399215;19;1301;-49
2023/05/10 11:10:23;;;;;;;;;;;;;;;19.63;55.64;101376.44;7397160;19;1459;-49
2023/05/10 11:13:01;;;;;;;;;;;;;;;19.56;55.42;101386.81;7399706;19;1530;-49
2023/05/10 11:15:33;;;;;;;;;;;;;;;19.60;55.09;101382.06;7399406;19;1540;-49
2023/05/10 11:18:02;;;;;;;;;;;;;;;19.68;55.13;101366.19;7398492;19;1843;-49
2023/05/10 11:20:33;;;;;;;;;;;;;;;19.42;55.55;101369.16;7399467;19;1156;-49
2023/05/10 11:23:15;;;;;;;;;;;;;;;19.33;55.65;101377.94;7399910;19;1117;-49
2023/05/10 11:25:44;;;;;;;;;;;;;;;19.41;55.68;101383.53;7399978;19;1048;-49
2023/05/10 11:28:15;;;;;;;;;;;;;;;19.30;56.03;101383.56;7399597;19;1542;-49
2023/05/10 11:30:46;;;;;;;;;;;;;;;19.25;56.49;101383.06;7398365;19;1732;-49
2023/05/10 11:33:19;;;;;;;;;;;;;;;19.26;56.08;101380.28;7399396;19;1471;-49
2023/05/10 11:35:47;;;;;;;;;;;;;;;19.24;55.98;101379.53;7399795;19;1682;-49
2023/05/10 11:38:16;;;;;;;;;;;;;;;19.20;55.97;101369.16;7397748;19;1864;-49
2023/05/10 11:40:44;;;;;;;;;;;;;;;19.52;55.16;101353.19;7399327;19;1795;-49
2023/05/10 11:43:15;;;;;;;;;;;;;;;19.61;55.20;101367.66;7400152;19;999;-49
2023/05/10 11:45:44;;;;;;;;;;;;;;;19.59;54.32;101364.25;7400637;19;1000;-49
2023/05/10 11:48:12;;;;;;;;;;;;;;;19.56;54.30;101369.88;7398845;19;1938;-49
2023/05/10 11:50:40;;;;;;;;;;;;;;;19.66;54.09;101365.47;7398361;19;1399;-49
2023/05/10 11:53:09;;;;;;;;;;;;;;;19.52;54.63;101358.56;7398414;19;1582;-49
2023/05/10 11:55:37;;;;;;;;;;;;;;;19.44;55.26;101364.53;7398704;19;1814;-49
2023/05/10 11:58:05;;;;;;;;;;;;;;;19.56;55.00;101343.06;7397534;19;1851;-49
2023/05/10 12:00:36;;;;;;;;;;;;;;;19.60;54.78;101339.16;7397328;19;1471;-49
2023/05/10 12:03:05;;;;;;;;;;;;;;;19.63;54.80;101352.28;7398257;19;1641;-49
2023/05/10 12:05:34;;;;;;;;;;;;;;;19.86;53.54;101343.25;7398927;19;1041;-49
2023/05/10 12:08:15;;;;;;;;;;;;;;;19.78;54.33;101347.56;7397260;19;1918;-49
2023/05/10 12:10:44;;;;;;;;;;;;;;;19.85;52.28;101338.00;7397977;19;1886;-49
2023/05/10 12:13:16;;;;;;;;;;;;;;;19.72;53.39;101343.53;7397673;19;1221;-49
2023/05/10 12:15:47;;;;;;;;;;;;;;;19.89;53.78;101330.53;7397697;19;1424;-48
2023/05/10 12:18:15;;;;;;;;;;;;;;;19.92;53.29;101341.88;7397808;19;1857;-49
2023/05/10 12:20:43;;;;;;;;;;;;;;;19.60;54.71;101344.50;7396960;19;1550;-49
2023/05/10 12:23:12;;;;;;;;;;;;;;;19.66;54.45;101327.91;7395021;19;1178;-48
2023/05/10 12:25:41;;;;;;;;;;;;;;;19.52;54.75;101328.16;7395201;19;1889;-48
2023/05/10 12:28:11;;;;;;;;;;;;;;;19.83;53.95;101318.47;7395662;19;1518;-48
2023/05/10 12:30:39;;;;;;;;;;;;;;;19.65;54.28;101328.88;7396938;19;1145;-48
2023/05/10 12:33:13;;;;;;;;;;;;;;;19.60;54.88;101310.47;7397406;19;1554;-49
2023/05/10 12:35:48;;;;;;;;;;;;;;;19.64;52.55;101319.13;7396241;19;1222;-49
2023/05/10 12:38:30;;;;;;;;;;;;;;;19.47;54.71;101324.03;7396185;19;1840;-48
2023/05/10 12:40:58;;;;;;;;;;;;;;;19.45;56.03;101327.81;7395697;19;1182;-47
2023/05/10 12:43:26;;;;;;;;;;;;;;;19.59;55.49;101324.00;7392778;19;1398;-53
2023/05/10 12:45:55;;;;;;;;;;;;;;;19.69;55.54;101311.53;7396158;19;1518;-53
2023/05/10 12:48:28;;;;;;;;;;;;;;;19.69;55.81;101319.59;7396508;19;1554;-52
2023/05/10 12:50:56;;;;;;;;;;;;;;;19.70;56.05;101320.47;7389626;19;1475;-55
2023/05/10 12:53:25;;;;;;;;;;;;;;;19.74;56.27;101309.38;7391689;19;1238;-52
2023/05/10 12:55:53;;;;;;;;;;;;;;;19.88;55.82;101293.97;7390314;19;1239;-53
2023/05/10 12:58:21;;;;;;;;;;;;;;;19.89;56.02;101291.13;7393905;19;1834;-53